Time;durP1;ratioP1;P1;durP2;ratioP2;P2;SDS_P1;SDS_P2;PMS_P1;PMS_P2;Temp;Humidity;BMP_temperature;BMP_pressure;BME280_temperature;BME280_humidity;BME280_pressure;Samples;Min_cycle;Max_cycle;Signal;HPM_P1;HPM_P2
2022/09/26 00:00:23;;;;;;;7.57;6.17;;;12.50;99.90;;;;;;5112991;28;20486;-54
2022/09/26 00:02:50;;;;;;;8.30;7.03;;;12.60;99.90;;;;;;5112445;28;20473;-54
2022/09/26 00:05:17;;;;;;;7.20;6.50;;;12.50;99.90;;;;;;5110359;28;20511;-54
2022/09/26 00:07:44;;;;;;;8.87;7.97;;;12.50;99.90;;;;;;5112054;28;21001;-54
2022/09/26 00:10:12;;;;;;;8.10;6.70;;;12.40;99.90;;;;;;5112687;28;20423;-54
2022/09/26 00:12:39;;;;;;;10.70;7.30;;;12.40;99.90;;;;;;5111087;28;20458;-54
2022/09/26 00:15:09;;;;;;;10.23;7.33;;;12.40;99.90;;;;;;5116602;28;20941;-54
2022/09/26 00:17:36;;;;;;;7.90;7.17;;;12.30;99.90;;;;;;5116452;28;20936;-54
2022/09/26 00:20:03;;;;;;;12.20;6.73;;;12.40;99.90;;;;;;5114764;28;20473;-54
2022/09/26 00:22:31;;;;;;;9.50;5.97;;;12.30;99.90;;;;;;5116385;28;20515;-54
2022/09/26 00:24:58;;;;;;;7.27;6.30;;;12.30;99.90;;;;;;5116469;28;20560;-54
2022/09/26 00:27:25;;;;;;;12.40;7.20;;;12.20;99.90;;;;;;5114640;28;20445;-54
2022/09/26 00:29:52;;;;;;;10.20;7.50;;;12.20;99.90;;;;;;5116729;28;20456;-54
2022/09/26 00:32:20;;;;;;;9.67;6.73;;;12.20;99.90;;;;;;5116200;28;20871;-54
2022/09/26 00:34:47;;;;;;;7.67;6.97;;;12.20;99.90;;;;;;5113787;28;20442;-54
2022/09/26 00:37:15;;;;;;;8.70;7.00;;;12.10;99.90;;;;;;5116441;28;20489;-55
2022/09/26 00:39:42;;;;;;;11.03;6.33;;;12.10;99.90;;;;;;5115913;28;20457;-54
2022/09/26 00:42:12;;;;;;;7.23;6.53;;;12.00;99.90;;;;;;5114350;27;20810;-54
2022/09/26 00:44:46;;;;;;;7.43;6.27;;;12.00;99.90;;;;;;5116053;28;20960;-54
2022/09/26 00:47:42;;;;;;;7.27;6.57;;;12.10;99.90;;;;;;5116197;28;20502;-54
2022/09/26 00:50:18;;;;;;;9.50;7.00;;;11.90;99.90;;;;;;5114366;28;20415;-54
2022/09/26 00:52:49;;;;;;;9.53;6.80;;;11.90;99.90;;;;;;5116087;28;20460;-54
2022/09/26 00:55:21;;;;;;;8.00;6.03;;;11.80;99.90;;;;;;5116022;28;20472;-55
2022/09/26 00:57:53;;;;;;;9.17;6.37;;;11.70;99.90;;;;;;5114092;28;20429;-55
2022/09/26 01:00:22;;;;;;;10.20;6.63;;;11.60;99.90;;;;;;5115612;28;20454;-54
2022/09/26 01:02:54;;;;;;;8.73;7.27;;;11.50;99.90;;;;;;5115951;28;20462;-55
2022/09/26 01:05:23;;;;;;;7.23;6.53;;;11.50;99.90;;;;;;5113333;28;20426;-54
2022/09/26 01:07:52;;;;;;;10.63;7.03;;;11.50;99.90;;;;;;5115511;28;20446;-55
2022/09/26 01:10:19;;;;;;;8.60;6.33;;;11.40;99.90;;;;;;5115801;28;20495;-55
2022/09/26 01:12:47;;;;;;;7.43;6.63;;;11.50;99.90;;;;;;5113428;28;20819;-55
2022/09/26 01:15:14;;;;;;;14.50;7.27;;;11.40;99.90;;;;;;5115669;28;20442;-55
2022/09/26 01:17:44;;;;;;;7.90;7.10;;;11.50;99.90;;;;;;5113556;28;21004;-55
2022/09/26 01:20:29;;;;;;;10.43;7.47;;;11.50;99.90;;;;;;5113767;28;20446;-54
2022/09/26 01:23:29;;;;;;;7.37;6.67;;;11.60;99.90;;;;;;5115339;28;20553;-55
2022/09/26 01:26:20;;;;;;;7.27;6.57;;;11.30;99.90;;;;;;5113338;28;20924;-55
2022/09/26 01:28:58;;;;;;;8.90;6.43;;;;;;;;;;5115288;28;20418;-55
2022/09/26 01:31:33;;;;;;;8.43;7.33;;;11.10;99.90;;;;;;5115833;28;20477;-55
2022/09/26 01:34:03;;;;;;;9.90;6.43;;;;;;;;;;5113654;28;20418;-54
2022/09/26 01:36:45;;;;;;;7.00;6.30;;;10.70;99.90;;;;;;5114667;28;20796;-55
2022/09/26 01:39:29;;;;;;;7.63;6.70;;;11.10;99.90;;;;;;5115020;28;20513;-55
2022/09/26 01:42:05;;;;;;;6.83;6.10;;;11.10;99.90;;;;;;5112689;28;20470;-55
2022/09/26 01:44:39;;;;;;;9.90;6.73;;;11.10;99.90;;;;;;5114712;28;20856;-56
2022/09/26 01:47:15;;;;;;;9.23;7.53;;;11.20;99.90;;;;;;5115457;28;20520;-55
2022/09/26 01:49:52;;;;;;;7.20;6.20;;;11.20;99.90;;;;;;5072090;28;20794;-55
2022/09/26 01:52:24;;;;;;;8.10;7.00;;;11.20;99.90;;;;;;5074553;28;20518;-54
2022/09/26 01:54:57;;;;;;;8.93;8.00;;;11.20;99.90;;;;;;5074194;28;20971;-55
2022/09/26 01:57:30;;;;;;;9.20;6.53;;;11.30;99.90;;;;;;5073506;28;20480;-55
2022/09/26 02:00:06;;;;;;;9.30;8.40;;;11.30;99.90;;;;;;5073868;28;20927;-55
2022/09/26 02:02:38;;;;;;;8.80;7.53;;;11.30;99.90;;;;;;5071837;28;20858;-55
2022/09/26 02:05:09;;;;;;;10.47;8.20;;;11.30;99.90;;;;;;5073903;28;20871;-54
2022/09/26 02:07:40;;;;;;;12.43;7.90;;;11.30;99.90;;;;;;5073956;28;20902;-54
2022/09/26 02:10:13;;;;;;;12.70;7.87;;;11.30;99.90;;;;;;5071947;28;20521;-54
2022/09/26 02:12:44;;;;;;;11.10;8.10;;;11.20;99.90;;;;;;5073615;28;20469;-55
2022/09/26 02:15:16;;;;;;;11.10;8.27;;;11.20;99.90;;;;;;5073794;28;20439;-55
2022/09/26 02:17:47;;;;;;;9.30;7.43;;;11.20;99.90;;;;;;5071986;28;20469;-55
2022/09/26 02:20:18;;;;;;;7.80;7.10;;;11.30;99.90;;;;;;5073887;28;20429;-55
2022/09/26 02:22:45;;;;;;;10.00;7.70;;;11.40;99.90;;;;;;5073751;28;20905;-54
2022/09/26 02:25:13;;;;;;;9.70;7.80;;;11.40;99.90;;;;;;5071227;28;20793;-55
2022/09/26 02:27:40;;;;;;;8.03;7.27;;;11.40;99.90;;;;;;5073333;28;20449;-55
2022/09/26 02:30:08;;;;;;;7.40;6.70;;;11.40;99.90;;;;;;5073829;28;20551;-55
2022/09/26 02:32:36;;;;;;;7.90;7.10;;;11.30;99.90;;;;;;5071357;28;20474;-55
2022/09/26 02:35:52;;;;;;;9.37;8.37;;;11.30;99.90;;;;;;5072888;28;20935;-55
2022/09/26 02:38:03;;;;;;;8.77;7.97;;;11.40;99.90;;;;;;5073303;28;20537;-55
2022/09/26 02:40:40;;;;;;;9.27;8.37;;;11.50;99.90;;;;;;5070817;28;20530;-55
2022/09/26 02:43:24;;;;;;;8.43;7.33;;;11.40;99.90;;;;;;5073625;28;20464;-54
2022/09/26 02:46:02;;;;;;;8.60;7.37;;;11.30;99.90;;;;;;5073247;28;20429;-55
2022/09/26 02:48:45;;;;;;;9.60;7.27;;;11.30;99.90;;;;;;5089630;28;20474;-55
2022/09/26 02:51:33;;;;;;;9.20;6.87;;;11.30;99.90;;;;;;5113796;28;20541;-55
2022/09/26 02:54:15;;;;;;;7.47;6.60;;;11.20;99.90;;;;;;5113665;28;20441;-55
2022/09/26 02:56:54;;;;;;;7.33;6.70;;;11.10;99.90;;;;;;5113900;28;20466;-55
2022/09/26 02:59:27;;;;;;;8.27;6.33;;;11.20;99.90;;;;;;5113418;28;20426;-55
2022/09/26 03:02:00;;;;;;;9.20;8.30;;;11.20;99.90;;;;;;5111540;28;20972;-54
2022/09/26 03:04:36;;;;;;;7.47;6.67;;;11.30;99.90;;;;;;5113639;28;20529;-55
2022/09/26 03:07:09;;;;;;;7.50;6.70;;;11.30;99.90;;;;;;5113608;28;20419;-55
2022/09/26 03:09:36;;;;;;;6.90;6.20;;;11.40;99.90;;;;;;5111091;28;20510;-55
2022/09/26 03:12:06;;;;;;;7.43;6.43;;;11.40;99.90;;;;;;5113069;28;20469;-55
2022/09/26 03:14:36;;;;;;;8.03;7.23;;;11.40;99.90;;;;;;5113128;28;21020;-54
2022/09/26 03:17:07;;;;;;;7.90;7.13;;;11.50;99.90;;;;;;5111548;28;20488;-55
2022/09/26 03:19:41;;;;;;;9.03;6.63;;;11.50;99.90;;;;;;5113690;28;20442;-54
2022/09/26 03:22:11;;;;;;;6.60;5.90;;;11.50;99.90;;;;;;5113505;28;20492;-54
2022/09/26 03:24:42;;;;;;;8.67;7.50;;;11.50;99.90;;;;;;5110853;28;20462;-54
2022/09/26 03:27:11;;;;;;;6.43;5.83;;;11.40;99.90;;;;;;5113796;28;20431;-55
2022/09/26 03:29:38;;;;;;;7.17;6.13;;;11.40;99.90;;;;;;5112804;28;20459;-55
2022/09/26 03:32:06;;;;;;;9.57;6.00;;;11.40;99.90;;;;;;5111166;28;20515;-55
2022/09/26 03:34:33;;;;;;;5.93;5.33;;;11.40;99.90;;;;;;5113505;28;20478;-55
2022/09/26 03:37:00;;;;;;;7.47;6.77;;;11.40;99.90;;;;;;5112775;28;20509;-55
2022/09/26 03:39:29;;;;;;;6.80;6.13;;;11.40;99.90;;;;;;5111027;28;20477;-55
2022/09/26 03:41:57;;;;;;;6.87;6.27;;;11.40;99.90;;;;;;5112606;28;20466;-55
2022/09/26 03:44:24;;;;;;;7.50;4.90;;;11.50;99.90;;;;;;5112633;28;20478;-55
2022/09/26 03:46:51;;;;;;;6.90;5.87;;;11.50;99.90;;;;;;5112222;28;20430;-55
2022/09/26 03:49:19;;;;;;;8.57;5.77;;;11.60;99.90;;;;;;5117236;28;20819;-55
2022/09/26 03:51:46;;;;;;;8.10;5.80;;;11.50;99.90;;;;;;5117229;28;20516;-55
2022/09/26 03:54:13;;;;;;;6.43;5.37;;;11.40;99.90;;;;;;5115036;28;20791;-55
2022/09/26 03:56:42;;;;;;;5.70;4.60;;;11.30;99.90;;;;;;5117220;28;20488;-55
2022/09/26 03:59:09;;;;;;;5.77;5.03;;;11.30;99.90;;;;;;5117280;28;20537;-55
2022/09/26 04:01:36;;;;;;;6.00;5.37;;;11.40;99.90;;;;;;5115311;28;20637;-54
2022/09/26 04:04:03;;;;;;;6.17;4.60;;;11.30;99.90;;;;;;5117351;28;20446;-55
2022/09/26 04:06:31;;;;;;;5.13;4.70;;;11.40;99.90;;;;;;5116649;28;20446;-55
2022/09/26 04:08:58;;;;;;;5.87;4.87;;;11.40;99.90;;;;;;5114681;28;20439;-55
2022/09/26 04:11:25;;;;;;;6.53;4.90;;;11.40;99.90;;;;;;5116416;28;20960;-54
2022/09/26 04:13:54;;;;;;;5.40;5.00;;;11.40;99.90;;;;;;5116876;28;20551;-54
2022/09/26 04:16:22;;;;;;;7.70;4.50;;;11.30;99.90;;;;;;5114772;28;20446;-55
2022/09/26 04:18:50;;;;;;;5.77;5.13;;;11.30;99.90;;;;;;5116834;28;20971;-55
2022/09/26 04:21:17;;;;;;;5.37;4.87;;;11.30;99.90;;;;;;5116811;28;20469;-54
2022/09/26 04:23:45;;;;;;;6.57;5.50;;;11.40;99.90;;;;;;5115309;28;20543;-55
2022/09/26 04:26:15;;;;;;;8.57;4.90;;;11.40;99.90;;;;;;5116645;28;20537;-54
2022/09/26 04:28:44;;;;;;;5.43;4.73;;;11.40;99.90;;;;;;5116740;28;20492;-55
2022/09/26 04:31:13;;;;;;;4.70;4.10;;;11.30;99.90;;;;;;5114393;28;20462;-55
2022/09/26 04:33:40;;;;;;;5.33;4.90;;;11.30;99.90;;;;;;5116293;28;20446;-55
2022/09/26 04:36:11;;;;;;;9.27;5.00;;;11.20;99.90;;;;;;5116183;28;20446;-55
2022/09/26 04:38:38;;;;;;;7.80;5.27;;;11.20;99.90;;;;;;5114721;28;20500;-55
2022/09/26 04:41:06;;;;;;;7.93;5.20;;;11.30;99.90;;;;;;5115911;28;20474;-55
2022/09/26 04:43:34;;;;;;;4.90;4.50;;;11.20;99.90;;;;;;5115289;28;20990;-55
2022/09/26 04:46:01;;;;;;;5.27;4.77;;;11.20;99.90;;;;;;5114530;28;20526;-55
2022/09/26 04:48:30;;;;;;;4.80;4.40;;;11.20;99.90;;;;;;5116019;28;20473;-54
2022/09/26 04:50:57;;;;;;;5.07;4.10;;;11.10;99.90;;;;;;5116351;28;20446;-55
2022/09/26 04:53:25;;;;;;;6.30;5.00;;;11.10;99.90;;;;;;5114191;28;20531;-55
2022/09/26 04:55:53;;;;;;;6.00;4.33;;;;;;;;;;5116048;28;20451;-54
2022/09/26 04:58:21;;;;;;;5.57;5.07;;;;;;;;;;5115362;28;20588;-55
2022/09/26 05:00:51;;;;;;;7.20;4.90;;;;;;;;;;5114049;27;20454;-54
2022/09/26 05:03:19;;;;;;;5.97;3.77;;;10.80;99.90;;;;;;5116050;28;20846;-55
2022/09/26 05:05:48;;;;;;;5.57;4.43;;;11.00;99.90;;;;;;5115802;28;20520;-54
2022/09/26 05:08:16;;;;;;;6.30;4.60;;;11.00;99.90;;;;;;5113359;28;20446;-55
2022/09/26 05:10:45;;;;;;;4.30;4.00;;;11.00;99.90;;;;;;5115095;28;20447;-55
2022/09/26 05:13:12;;;;;;;8.80;4.70;;;11.00;99.90;;;;;;5115648;28;20489;-54
2022/09/26 05:15:40;;;;;;;6.10;4.20;;;10.90;99.90;;;;;;5113115;28;20937;-54
2022/09/26 05:18:10;;;;;;;7.03;4.70;;;10.80;99.90;;;;;;5115670;28;20992;-55
2022/09/26 05:20:38;;;;;;;7.97;4.87;;;10.80;99.90;;;;;;5115339;28;20446;-55
2022/09/26 05:23:08;;;;;;;4.97;4.07;;;10.70;99.90;;;;;;5113084;28;20496;-55
2022/09/26 05:28:23;;;;;;;8.17;4.97;;;10.70;99.90;;;;;;5115239;28;20402;-55
2022/09/26 05:30:50;;;;;;;8.73;4.60;;;10.70;99.90;;;;;;5113291;28;20458;-55
2022/09/26 05:33:18;;;;;;;4.80;4.30;;;;;;;;;;5114951;28;20944;-54
2022/09/26 05:35:49;;;;;;;4.93;4.43;;;10.50;99.90;;;;;;5114581;28;20498;-55
2022/09/26 05:38:18;;;;;;;6.73;3.90;;;10.50;99.90;;;;;;5112621;28;20499;-54
2022/09/26 05:40:56;;;;;;;4.43;4.07;;;10.60;99.90;;;;;;5114533;28;20886;-55
2022/09/26 05:43:24;;;;;;;5.77;5.27;;;10.70;99.90;;;;;;5113578;28;20961;-55
2022/09/26 05:45:51;;;;;;;8.80;5.40;;;10.80;99.90;;;;;;5111819;28;20684;-55
2022/09/26 05:48:19;;;;;;;5.27;4.70;;;10.70;99.90;;;;;;5113746;28;20848;-55
2022/09/26 05:50:47;;;;;;;7.33;4.57;;;10.70;99.90;;;;;;5114070;28;20461;-54
2022/09/26 05:53:14;;;;;;;6.63;4.53;;;10.80;99.90;;;;;;5111862;28;20538;-54
2022/09/26 05:55:43;;;;;;;5.37;4.60;;;10.80;99.90;;;;;;5114812;28;20464;-54
2022/09/26 05:58:10;;;;;;;5.13;4.73;;;10.80;99.90;;;;;;5114414;28;20478;-54
2022/09/26 06:00:37;;;;;;;6.13;4.67;;;10.90;99.90;;;;;;5112560;28;20937;-55
2022/09/26 06:03:04;;;;;;;10.00;4.70;;;10.90;99.90;;;;;;5114023;28;20577;-55
2022/09/26 06:05:33;;;;;;;5.83;4.70;;;11.00;99.90;;;;;;5114025;28;20446;-55
2022/09/26 06:08:01;;;;;;;6.13;5.07;;;11.10;99.90;;;;;;5111582;28;20446;-55
2022/09/26 06:10:29;;;;;;;5.47;4.97;;;11.20;99.90;;;;;;5112664;28;20423;-55
2022/09/26 06:13:02;;;;;;;5.37;4.87;;;11.20;99.90;;;;;;5114007;28;20463;-54
2022/09/26 06:15:29;;;;;;;5.80;4.83;;;11.30;99.90;;;;;;5111669;28;20621;-54
2022/09/26 06:18:03;;;;;;;9.33;5.57;;;11.40;99.90;;;;;;5113754;28;20813;-55
2022/09/26 06:20:31;;;;;;;4.43;4.13;;;11.50;99.90;;;;;;5114222;28;20510;-54
2022/09/26 06:22:58;;;;;;;6.33;5.17;;;11.60;99.90;;;;;;5111825;28;20470;-56
2022/09/26 06:25:26;;;;;;;5.27;4.87;;;11.70;99.90;;;;;;5113079;28;20471;-54
2022/09/26 06:27:55;;;;;;;5.90;5.27;;;11.80;99.90;;;;;;5113371;28;20533;-55
2022/09/26 06:30:24;;;;;;;6.30;4.57;;;11.80;99.90;;;;;;5111817;28;20541;-54
2022/09/26 06:32:52;;;;;;;5.53;4.87;;;11.90;99.90;;;;;;5113129;28;20467;-56
2022/09/26 06:35:20;;;;;;;4.97;4.57;;;11.90;99.90;;;;;;5113504;28;20446;-55
2022/09/26 06:37:47;;;;;;;4.40;4.00;;;11.90;99.90;;;;;;5111432;28;20514;-55
2022/09/26 06:40:15;;;;;;;4.57;4.17;;;12.00;99.90;;;;;;5113680;28;20447;-55
2022/09/26 06:42:45;;;;;;;5.80;4.43;;;12.00;99.90;;;;;;5113241;28;20479;-55
2022/09/26 06:45:13;;;;;;;4.63;4.13;;;12.00;99.90;;;;;;5111258;28;20604;-55
2022/09/26 06:47:42;;;;;;;5.13;4.10;;;12.00;99.90;;;;;;5113479;28;20472;-55
2022/09/26 06:50:10;;;;;;;4.03;3.60;;;12.00;99.90;;;;;;5113396;28;20409;-55
2022/09/26 06:52:37;;;;;;;5.40;3.93;;;12.10;99.90;;;;;;5111149;28;20585;-55
2022/09/26 06:55:07;;;;;;;6.23;4.23;;;12.20;99.90;;;;;;5113253;28;20443;-55
2022/09/26 06:57:38;;;;;;;5.37;3.80;;;12.30;99.90;;;;;;5113231;28;20458;-55
2022/09/26 07:00:07;;;;;;;5.13;4.10;;;12.30;99.90;;;;;;5110957;28;20470;-55
2022/09/26 07:02:34;;;;;;;6.50;3.80;;;12.40;99.90;;;;;;5113176;28;20472;-55
2022/09/26 07:05:04;;;;;;;5.27;4.10;;;12.30;99.90;;;;;;5112382;28;20448;-55
2022/09/26 07:07:32;;;;;;;4.70;4.30;;;12.50;99.90;;;;;;5111110;28;20874;-55
2022/09/26 07:09:59;;;;;;;5.17;4.20;;;12.40;99.90;;;;;;5113172;28;20442;-55
2022/09/26 07:12:27;;;;;;;4.57;4.17;;;12.50;99.90;;;;;;5112844;28;20480;-55
2022/09/26 07:14:54;;;;;;;4.57;4.10;;;12.60;99.90;;;;;;5110733;28;20857;-55
2022/09/26 07:17:21;;;;;;;3.50;3.20;;;12.70;99.90;;;;;;5113468;28;20871;-55
2022/09/26 07:19:52;;;;;;;3.97;3.57;;;12.70;99.90;;;;;;5113026;28;20570;-55
2022/09/26 07:22:20;;;;;;;6.97;3.63;;;12.80;99.90;;;;;;5110724;28;20466;-55
2022/09/26 07:24:49;;;;;;;6.00;3.37;;;12.80;99.90;;;;;;5112705;28;20449;-55
2022/09/26 07:27:17;;;;;;;5.37;3.33;;;12.80;99.90;;;;;;5113018;28;20455;-55
2022/09/26 07:29:47;;;;;;;3.43;3.10;;;13.00;99.90;;;;;;5110637;28;20454;-55
2022/09/26 07:32:14;;;;;;;5.33;3.60;;;13.10;99.90;;;;;;5112997;28;20850;-59
2022/09/26 07:34:42;;;;;;;3.53;3.23;;;13.10;99.90;;;;;;5112704;28;20545;-55
2022/09/26 07:37:09;;;;;;;4.10;3.40;;;13.20;99.90;;;;;;5110451;28;20445;-55
2022/09/26 07:39:38;;;;;;;3.97;3.07;;;13.30;99.90;;;;;;5113200;28;20489;-55
2022/09/26 07:42:07;;;;;;;3.53;3.20;;;13.50;99.90;;;;;;5112348;28;20974;-55
2022/09/26 07:44:34;;;;;;;8.07;3.60;;;13.50;99.90;;;;;;5110580;28;20450;-55
2022/09/26 07:52:31;;;;;;;4.00;3.60;;;13.40;99.90;;;;;;5111021;28;20445;-55
2022/09/26 07:54:59;;;;;;;4.93;3.60;;;13.50;99.90;;;;;;5112631;28;20457;-55
2022/09/26 07:57:33;;;;;;;3.80;3.07;;;13.40;99.90;;;;;;5112779;28;20788;-56
2022/09/26 08:00:00;;;;;;;6.50;3.37;;;13.40;99.90;;;;;;5111806;28;20483;-55
2022/09/26 08:02:33;;;;;;;3.40;3.10;;;13.30;99.90;;;;;;5112393;28;20470;-55
2022/09/26 08:05:02;;;;;;;4.03;3.10;;;13.20;99.90;;;;;;5110848;28;20427;-55
2022/09/26 08:07:29;;;;;;;4.90;3.53;;;13.30;99.90;;;;;;5112877;28;20451;-55
2022/09/26 08:09:57;;;;;;;3.63;3.33;;;13.50;99.90;;;;;;5112039;28;20987;-55
2022/09/26 08:12:27;;;;;;;5.07;3.80;;;13.50;99.90;;;;;;5111086;28;20502;-55
2022/09/26 08:14:54;;;;;;;9.27;3.20;;;13.60;99.90;;;;;;5112387;28;20933;-55
2022/09/26 08:17:22;;;;;;;4.07;3.40;;;13.80;99.90;;;;;;5112399;28;20554;-55
2022/09/26 08:19:49;;;;;;;3.30;3.00;;;13.90;99.90;;;;;;5111111;28;20517;-55
2022/09/26 08:22:16;;;;;;;4.10;3.20;;;13.90;99.90;;;;;;5112774;28;20543;-55
2022/09/26 08:24:48;;;;;;;4.43;3.50;;;13.90;99.90;;;;;;5111796;28;20955;-55
2022/09/26 08:27:15;;;;;;;5.00;3.70;;;13.90;99.90;;;;;;5110566;28;20848;-55
2022/09/26 08:29:48;;;;;;;4.83;2.93;;;14.00;99.90;;;;;;5111415;28;20859;-55
2022/09/26 08:32:16;;;;;;;3.37;2.80;;;14.20;99.90;;;;;;5112213;28;20462;-56
2022/09/26 08:34:43;;;;;;;3.47;3.17;;;14.40;99.90;;;;;;5112394;28;20450;-57
2022/09/26 08:37:11;;;;;;;5.00;3.90;;;14.50;99.90;;;;;;5116116;28;20450;-55
2022/09/26 08:39:38;;;;;;;4.43;3.80;;;14.70;99.90;;;;;;5115967;28;20535;-55
2022/09/26 08:42:22;;;;;;;7.17;3.77;;;14.90;99.90;;;;;;5114226;28;20509;-55
2022/09/26 08:46:24;;;;;;;5.83;3.30;;;15.10;99.90;;;;;;5116129;28;20427;-55
2022/09/26 08:48:02;;;;;;;4.43;3.20;;;15.20;99.90;;;;;;5115905;28;20859;-55
2022/09/26 08:50:38;;;;;;;4.20;3.27;;;15.40;99.90;;;;;;5114162;28;20419;-55
2022/09/26 08:53:09;;;;;;;5.30;3.63;;;15.50;99.90;;;;;;5115585;28;20466;-55
2022/09/26 08:55:41;;;;;;;3.80;3.07;;;15.50;99.90;;;;;;5115797;28;20450;-55
2022/09/26 08:58:18;;;;;;;4.90;3.00;;;15.50;99.90;;;;;;5113845;28;20415;-56
2022/09/26 09:00:50;;;;;;;4.07;3.40;;;15.70;99.90;;;;;;5115889;28;20590;-55
2022/09/26 09:03:26;;;;;;;6.17;3.00;;;15.80;99.90;;;;;;5116003;28;20492;-55
2022/09/26 09:05:58;;;;;;;2.90;2.70;;;15.70;99.90;;;;;;5113366;28;20430;-55
2022/09/26 09:08:32;;;;;;;3.10;2.60;;;15.40;99.90;;;;;;5115550;28;20959;-55
2022/09/26 09:11:09;;;;;;;4.60;2.80;;;15.30;99.90;;;;;;5115155;28;20513;-55
2022/09/26 09:13:53;;;;;;;3.50;3.20;;;15.10;99.90;;;;;;5113486;28;20458;-55
2022/09/26 09:16:34;;;;;;;4.83;3.17;;;15.10;99.90;;;;;;5115240;28;20526;-56
2022/09/26 09:19:09;;;;;;;4.10;3.00;;;15.10;99.90;;;;;;5113561;28;20477;-55
2022/09/26 09:21:58;;;;;;;5.50;2.97;;;15.10;99.90;;;;;;5115376;28;20511;-55
2022/09/26 09:24:48;;;;;;;8.17;2.30;;;15.20;99.90;;;;;;5115601;28;20458;-55
2022/09/26 09:27:24;;;;;;;6.27;2.87;;;16.00;99.90;;;;;;5112882;28;20543;-55
2022/09/26 09:30:08;;;;;;;3.00;2.70;;;17.40;99.90;;;;;;5115232;28;20537;-56
2022/09/26 09:32:46;;;;;;;4.83;2.90;;;18.60;99.90;;;;;;5115054;28;20458;-56
2022/09/26 09:35:16;;;;;;;3.70;2.77;;;18.90;99.90;;;;;;5113107;28;20828;-56
2022/09/26 09:37:47;;;;;;;2.70;2.50;;;19.20;99.90;;;;;;5115115;28;20445;-56
2022/09/26 09:40:24;;;;;;;2.97;2.70;;;19.70;99.90;;;;;;5114720;28;20459;-56
2022/09/26 09:42:56;;;;;;;2.80;2.30;;;19.70;99.90;;;;;;5111977;28;20462;-56
2022/09/26 09:45:29;;;;;;;3.70;2.77;;;20.40;99.90;;;;;;5114863;28;20506;-56
2022/09/26 09:47:58;;;;;;;6.03;2.40;;;21.10;99.70;;;;;;5114691;28;20514;-56
2022/09/26 09:50:34;;;;;;;5.00;2.83;;;20.40;99.70;;;;;;5112501;28;20438;-55
2022/09/26 09:53:13;;;;;;;3.23;2.70;;;20.80;99.60;;;;;;5114503;28;20459;-56
2022/09/26 09:55:50;;;;;;;6.23;2.60;;;20.70;98.00;;;;;;5114678;28;20422;-56
2022/09/26 09:58:37;;;;;;;2.63;2.10;;;20.30;98.10;;;;;;5112510;28;20513;-56
2022/09/26 10:01:12;;;;;;;3.33;2.23;;;20.10;98.50;;;;;;5113835;28;20542;-56
2022/09/26 10:03:47;;;;;;;4.47;2.50;;;19.90;98.40;;;;;;5113300;28;20462;-56
2022/09/26 10:06:15;;;;;;;3.47;2.63;;;19.50;98.80;;;;;;5114207;28;20430;-56
2022/09/26 10:08:42;;;;;;;5.93;2.90;;;19.40;99.50;;;;;;5113275;28;20920;-56
2022/09/26 10:11:23;;;;;;;2.50;2.10;;;19.50;98.50;;;;;;5111190;28;20496;-56
2022/09/26 10:13:54;;;;;;;3.00;2.47;;;18.80;98.60;;;;;;5113395;28;20419;-55
2022/09/26 10:16:22;;;;;;;3.17;2.27;;;18.00;98.90;;;;;;5113582;28;20789;-55
2022/09/26 10:18:59;;;;;;;3.93;2.43;;;17.20;99.50;;;;;;5111706;28;20539;-56
2022/09/26 10:21:31;;;;;;;2.23;2.03;;;16.70;99.90;;;;;;5113503;28;20477;-55
2022/09/26 10:24:00;;;;;;;2.90;2.40;;;16.60;99.90;;;;;;5113357;28;20423;-56
2022/09/26 10:26:33;;;;;;;3.10;2.53;;;16.60;99.90;;;;;;5111415;28;20481;-55
2022/09/26 10:29:05;;;;;;;3.60;2.10;;;17.20;99.90;;;;;;5113425;28;20438;-55
2022/09/26 10:31:37;;;;;;;2.53;2.33;;;18.50;98.90;;;;;;5113864;28;20484;-55
2022/09/26 10:34:07;;;;;;;2.87;2.07;;;19.70;99.40;;;;;;5110776;28;20836;-55
2022/09/26 10:36:36;;;;;;;3.83;2.30;;;20.50;97.00;;;;;;5113059;28;20419;-57
2022/09/26 10:42:01;;;;;;;2.30;2.10;;;;;;;;;;5110499;28;20445;-55
2022/09/26 10:44:32;;;;;;;6.90;2.13;;;21.70;94.30;;;;;;5112984;27;20796;-55
2022/09/26 10:47:07;;;;;;;2.83;2.20;;;21.80;94.40;;;;;;5113088;28;20528;-56
2022/09/26 10:49:39;;;;;;;2.30;2.10;;;21.70;93.20;;;;;;5110676;28;20473;-55
2022/09/26 10:52:13;;;;;;;2.10;1.80;;;20.00;93.80;;;;;;5113059;28;21100;-55
2022/09/26 10:54:46;;;;;;;9.63;2.57;;;19.10;93.50;;;;;;5112808;28;20431;-55
2022/09/26 10:57:23;;;;;;;3.00;2.00;;;19.10;94.60;;;;;;5110770;28;20462;-56
2022/09/26 10:59:51;;;;;;;2.63;1.90;;;19.10;93.50;;;;;;5112731;28;20482;-56
2022/09/26 11:02:24;;;;;;;3.13;2.10;;;18.60;94.00;;;;;;5112501;28;20465;-55
2022/09/26 11:07:46;;;;;;;2.17;1.77;;;18.20;94.60;;;;;;5112714;28;20406;-56
2022/09/26 11:10:17;;;;;;;3.37;2.03;;;18.10;94.90;;;;;;5110328;28;20517;-56
2022/09/26 11:12:57;;;;;;;2.30;2.07;;;18.00;94.70;;;;;;5112966;28;20992;-56
2022/09/26 11:15:24;;;;;;;2.20;1.87;;;17.80;96.00;;;;;;5112749;28;20518;-55
2022/09/26 11:17:54;;;;;;;3.87;1.93;;;17.60;97.70;;;;;;5110689;28;20455;-56
2022/09/26 11:20:38;;;;;;;2.07;1.87;;;17.40;97.90;;;;;;5112841;28;20478;-56
2022/09/26 11:23:13;;;;;;;2.40;2.20;;;17.20;98.60;;;;;;5112535;28;20469;-55
2022/09/26 11:25:53;;;;;;;6.13;2.37;;;17.20;97.80;;;;;;5110766;28;20450;-56
2022/09/26 11:28:26;;;;;;;3.83;1.90;;;18.00;98.60;;;;;;5112752;28;20924;-56
2022/09/26 11:31:01;;;;;;;1.90;1.80;;;19.40;96.10;;;;;;5112262;28;20641;-56
2022/09/26 11:33:29;;;;;;;2.80;2.27;;;20.80;96.60;;;;;;5110656;28;20446;-56
2022/09/26 11:36:13;;;;;;;1.77;1.67;;;20.50;92.90;;;;;;5112760;28;20533;-56
2022/09/26 11:38:46;;;;;;;4.60;1.70;;;20.30;94.60;;;;;;5112248;28;20431;-56
2022/09/26 11:41:40;;;;;;;2.27;1.43;;;19.60;93.90;;;;;;5110288;28;20458;-57
2022/09/26 11:44:32;;;;;;;3.60;1.60;;;19.40;93.30;;;;;;5103691;28;20537;-56
2022/09/26 11:47:14;;;;;;;2.03;1.73;;;20.20;91.40;;;;;;5111518;28;20451;-56
2022/09/26 11:50:05;;;;;;;2.10;1.87;;;20.60;91.20;;;;;;5112083;28;20465;-56
2022/09/26 11:52:50;;;;;;;3.03;2.20;;;19.90;92.30;;;;;;5112233;28;20459;-56
2022/09/26 11:55:29;;;;;;;5.63;1.90;;;19.40;93.50;;;;;;5110258;28;20441;-56
2022/09/26 11:58:04;;;;;;;2.80;1.60;;;19.40;94.60;;;;;;5112124;28;20455;-55
2022/09/26 12:00:50;;;;;;;3.80;2.00;;;18.90;94.20;;;;;;5112004;28;20481;-56
2022/09/26 12:03:55;;;;;;;5.77;1.90;;;18.20;95.30;;;;;;5110259;28;20426;-55
2022/09/26 12:06:32;;;;;;;4.63;1.87;;;18.00;96.30;;;;;;5108726;28;20450;-56
2022/09/26 12:09:22;;;;;;;1.97;1.63;;;17.20;99.00;;;;;;5113590;28;20790;-56
2022/09/26 12:12:03;;;;;;;3.10;1.60;;;16.50;99.90;;;;;;5116085;28;20498;-55
2022/09/26 12:14:41;;;;;;;2.53;2.33;;;16.10;99.40;;;;;;5116515;28;20470;-55
2022/09/26 12:17:16;;;;;;;5.10;1.80;;;16.00;99.90;;;;;;5114394;28;20432;-56
2022/09/26 12:19:55;;;;;;;1.80;1.70;;;16.10;99.90;;;;;;5116543;28;20473;-56
2022/09/26 12:22:30;;;;;;;3.47;2.20;;;16.20;99.90;;;;;;5115833;28;20969;-56
2022/09/26 12:25:24;;;;;;;7.33;2.33;;;16.40;99.90;;;;;;5113939;27;20430;-55
2022/09/26 12:28:04;;;;;;;2.07;1.90;;;17.60;99.90;;;;;;5116349;28;20449;-56
2022/09/26 12:30:37;;;;;;;2.80;2.17;;;18.00;99.70;;;;;;5116513;28;20525;-57
2022/09/26 12:33:34;;;;;;;4.27;2.10;;;18.30;99.30;;;;;;5113848;28;20541;-56
2022/09/26 12:36:17;;;;;;;2.73;2.10;;;18.90;98.50;;;;;;5099874;28;20453;-57
2022/09/26 12:38:59;;;;;;;2.30;1.83;;;19.30;97.50;;;;;;5115723;28;20435;-55
2022/09/26 12:41:54;;;;;;;4.47;2.30;;;19.40;97.60;;;;;;5115863;28;20486;-54
2022/09/26 12:44:41;;;;;;;2.30;1.80;;;20.20;97.50;;;;;;5116312;28;20426;-54
2022/09/26 12:47:23;;;;;;;2.10;2.00;;;20.90;97.40;;;;;;5113278;28;20445;-55
2022/09/26 12:50:14;;;;;;;3.10;1.63;;;21.50;95.50;;;;;;5115526;28;20487;-55
2022/09/26 12:53:02;;;;;;;2.60;1.67;;;19.90;94.40;;;;;;5116022;28;20466;-54
2022/09/26 12:55:36;;;;;;;2.40;1.90;;;19.20;95.30;;;;;;5113648;28;20526;-54
2022/09/26 12:58:29;;;;;;;3.53;1.90;;;18.90;96.10;;;;;;5115847;28;20426;-54
2022/09/26 13:01:06;;;;;;;2.37;1.70;;;18.40;96.40;;;;;;5114968;28;21000;-54
2022/09/26 13:03:55;;;;;;;2.13;1.73;;;18.30;97.40;;;;;;5115788;28;20462;-54
2022/09/26 13:07:02;;;;;;;1.97;1.73;;;18.20;97.10;;;;;;5115799;28;20427;-54
2022/09/26 13:09:55;;;;;;;1.60;1.30;;;17.80;95.50;;;;;;5097959;28;20503;-54
2022/09/26 13:12:39;;;;;;;1.83;1.70;;;17.40;96.10;;;;;;5115675;28;20447;-54
2022/09/26 13:15:21;;;;;;;1.60;1.30;;;17.00;96.50;;;;;;5115440;28;20499;-54
2022/09/26 13:17:56;;;;;;;1.70;1.60;;;16.70;96.30;;;;;;5113625;28;20480;-54
2022/09/26 13:20:29;;;;;;;3.00;1.37;;;16.40;97.00;;;;;;5115029;28;20466;-54
2022/09/26 13:23:02;;;;;;;1.40;1.30;;;16.40;96.50;;;;;;5114978;28;20466;-54
2022/09/26 13:25:37;;;;;;;1.40;1.30;;;16.40;96.60;;;;;;5113254;28;20783;-54
2022/09/26 13:28:10;;;;;;;1.90;1.43;;;16.50;95.70;;;;;;5115562;28;20437;-54
2022/09/26 13:30:45;;;;;;;1.60;1.40;;;16.40;95.90;;;;;;5113345;28;20958;-54